Brunswick, ME (04011)

10:41 AM EDT on August 04, 2015 (GMT -0400)
Brunswick Police Department | | Change Station
CLOSE
Current Station
Personal Weather Station
Location: Brunswick, ME
Elevation: 89 ft
Nearby Weather Stations

Elev 89 ft 43.91 °N, 69.98 °W | Updated 11 minutes ago

Overcast
Overcast
68.0 °F
Feels Like 68.0 °F
N
0.0
Wind Variable Wind from North
Gusts 2.0 mph

Today
High -- | Low -- °F
--% Chance of Precip.
Yesterday
High -- | Low -- °F
Precip. -- in
5:31 AM 8:00 PM
Waning Gibbous, 77% visible
Pressure 29.86 in
Visibility 7.0 miles
Clouds Scattered Clouds 400 ft
Mostly Cloudy 10000 ft
Overcast 12000 ft
Dew Point 66 °F
Humidity 94%
Rainfall 0.05 in
Snow Depth Not available.
UV 2 out of 12
Pollen 4.90 out of 12
Air Quality Not available.
Flu Activity Not available.
SPECI KIWI 041425Z AUTO 00000KT 7SM SCT004 BKN100 OVC120 19/18 A2986 RMK AO2 T01940183

More Conditions Fewer Conditions

Pressure 29.86 in
Visibility 7.0 miles
Clouds Scattered Clouds 400 ft
Mostly Cloudy 10000 ft
Overcast 12000 ft
Dew Point 66 °F
Humidity 94%
Rainfall 0.05 in
Snow Depth Not available.
UV 2 out of 12
Pollen 4.90 out of 12
Air Quality Not available.
Flu Activity Not available.
SPECI KIWI 041425Z AUTO 00000KT 7SM SCT004 BKN100 OVC120 19/18 A2986 RMK AO2 T01940183

More Conditions Fewer Conditions

10-Day Weather Forecast

×

Almanac

Astronomy

Aug. 04, 2015 Rise Set
Actual Time
Civil Twilight
Nautical Twilight
Astronomical Twilight
Moon
Length of Visible Light
Length of Day
Tomorrow will be .
, % of the Moon is Illuminated

Today's Extremes

State Highs State Lows

Community

WunderPhotos

Upload Photos

1,843,921 photos uploaded!

WunderBlogs® & News

Nearby

Air Quality

  Air Quality AQ Index Pollutant
Not available.

Snow Depth

Station Depth Elevation

Earthquake Activity

City Distance Mag. Time & Date
Minimum magnitude displayed is 2.5.

Coastal Water Temperatures

Place Temperature

Stations

Nearby Weather Stations

Station Location Temp. Windchill Dew Point Humidity Wind Precip. Elev Updated Type